Time;durP1;ratioP1;P1;durP2;ratioP2;P2;SDS_P1;SDS_P2;PMS_P1;PMS_P2;Temp;Humidity;BMP_temperature;BMP_pressure;BME280_temperature;BME280_humidity;BME280_pressure;Samples;Min_cycle;Max_cycle;Signal;HPM_P1;HPM_P2
2022/12/06 00:01:40;;;;;;;384.60;187.97;;;;;;;;;;6235604;28;20025;-71
2022/12/06 00:04:40;;;;;;;368.70;170.02;;;;;;;;;;6231422;28;20017;-71
2022/12/06 00:07:40;;;;;;;355.48;173.55;;;;;;;;;;6237339;28;20052;-71
2022/12/06 00:10:40;;;;;;;336.13;154.45;;;;;;;;;;6237869;28;20025;-71
2022/12/06 00:13:40;;;;;;;341.93;162.47;;;;;;;;;;6239093;28;20140;-71
2022/12/06 00:16:41;;;;;;;318.67;161.47;;;;;;;;;;6239018;28;20181;-71
2022/12/06 00:19:41;;;;;;;298.80;142.37;;;;;;;;;;6242385;28;20024;-71
2022/12/06 00:22:44;;;;;;;345.70;149.53;;;;;;;;;;6245914;28;20021;-71
2022/12/06 00:25:44;;;;;;;267.25;129.95;;;;;;;;;;6233473;28;20223;-71
2022/12/06 00:28:45;;;;;;;345.77;153.77;;;;;;;;;;6230919;28;20080;-71
2022/12/06 00:31:45;;;;;;;282.57;123.43;;;;;;;;;;6229363;28;20464;-71
2022/12/06 00:34:46;;;;;;;285.33;113.17;;;;;;;;;;6220419;28;20018;-71
2022/12/06 00:37:46;;;;;;;270.90;117.97;;;;;;;;;;6240085;28;20022;-71
2022/12/06 00:40:46;;;;;;;279.42;129.45;;;;;;;;;;6230594;28;20472;-70
2022/12/06 00:43:46;;;;;;;277.10;129.65;;;;;;;;;;6238492;28;20100;-71
2022/12/06 00:46:46;;;;;;;239.73;122.27;;;;;;;;;;6241284;28;20025;-71
2022/12/06 00:49:47;;;;;;;256.63;121.50;;;;;;;;;;6241651;28;20017;-70
2022/12/06 00:52:47;;;;;;;261.80;118.55;;;;;;;;;;6233063;28;20053;-71
2022/12/06 00:55:47;;;;;;;246.50;113.87;;;;;;;;;;6235325;28;20080;-70
2022/12/06 00:58:48;;;;;;;187.27;85.73;;;;;;;;;;6240086;28;20061;-70
2022/12/06 01:01:48;;;;;;;235.20;108.77;;;;;;;;;;6231455;28;20029;-71
2022/12/06 01:04:48;;;;;;;248.52;113.45;;;;;;;;;;6232891;28;20018;-70
2022/12/06 01:07:48;;;;;;;227.87;102.83;;;;;;;;;;6239595;28;20067;-70
2022/12/06 01:10:52;;;;;;;201.30;100.43;;;;;;;;;;6239111;28;20021;-71
2022/12/06 01:13:53;;;;;;;194.20;93.20;;;;;;;;;;6241906;28;20391;-71
2022/12/06 01:16:53;;;;;;;213.00;88.87;;;;;;;;;;6239902;28;20215;-70
2022/12/06 01:19:53;;;;;;;199.27;86.83;;;;;;;;;;6240374;28;20026;-72
2022/12/06 01:22:53;;;;;;;198.43;84.95;;;;;;;;;;6245572;28;20060;-70
2022/12/06 01:25:53;;;;;;;205.53;83.77;;;;;;;;;;6239851;28;20385;-70
2022/12/06 01:28:54;;;;;;;204.90;82.30;;;;;;;;;;6245441;28;20013;-71
2022/12/06 01:31:54;;;;;;;207.17;81.33;;;;;;;;;;6239909;28;20052;-71
2022/12/06 01:34:55;;;;;;;201.27;78.63;;;;;;;;;;6239743;28;20068;-70
2022/12/06 01:37:55;;;;;;;201.20;72.63;;;;;;;;;;6240122;28;20033;-70
2022/12/06 01:40:55;;;;;;;151.60;66.43;;;;;;;;;;6243539;28;20438;-70
2022/12/06 01:43:55;;;;;;;156.13;69.32;;;;;;;;;;6237129;28;20025;-70
2022/12/06 01:46:55;;;;;;;163.00;75.33;;;;;;;;;;6230895;28;20150;-71
2022/12/06 01:49:56;;;;;;;154.33;71.90;;;;;;;;;;6239139;28;20096;-70
2022/12/06 01:52:59;;;;;;;160.35;72.55;;;;;;;;;;6241672;28;20071;-70
2022/12/06 01:56:00;;;;;;;154.07;63.55;;;;;;;;;;6244119;28;20118;-70
2022/12/06 01:59:00;;;;;;;175.20;67.77;;;;;;;;;;6237975;28;20560;-70
2022/12/06 02:02:01;;;;;;;124.93;46.47;;;;;;;;;;6233699;28;20017;-70
2022/12/06 02:05:01;;;;;;;162.40;66.28;;;;;;;;;;6229798;28;20424;-71
2022/12/06 02:08:02;;;;;;;148.07;60.60;;;;;;;;;;6231716;28;20017;-71
2022/12/06 02:11:03;;;;;;;121.57;57.20;;;;;;;;;;6237249;28;20033;-71
2022/12/06 02:14:05;;;;;;;135.00;59.37;;;;;;;;;;6236707;28;20029;-70
2022/12/06 02:17:14;;;;;;;101.53;45.35;;;;;;;;;;6236827;28;20025;-71
2022/12/06 02:20:17;;;;;;;115.32;46.85;;;;;;;;;;6229581;28;20065;-71
2022/12/06 02:23:35;;;;;;;107.20;48.70;;;;;;;;;;6232331;28;20030;-70
2022/12/06 02:26:42;;;;;;;95.43;43.42;;;;;;;;;;6238097;28;20013;-70
2022/12/06 02:29:58;;;;;;;107.05;46.38;;;;;;;;;;6236790;28;20021;-70
2022/12/06 02:33:12;;;;;;;95.40;44.90;;;;;;;;;;6234341;28;20029;-70
2022/12/06 02:36:12;;;;;;;100.38;45.72;;;;;;;;;;6228185;28;20061;-71
2022/12/06 02:39:23;;;;;;;96.50;42.03;;;;;;;;;;6239164;28;20026;-71
2022/12/06 02:42:25;;;;;;;96.78;44.67;;;;;;;;;;6237610;28;20259;-71
2022/12/06 02:45:28;;;;;;;95.82;45.00;;;;;;;;;;6237778;28;20040;-71
2022/12/06 02:48:30;;;;;;;96.85;43.55;;;;;;;;;;6234784;28;20132;-71
2022/12/06 02:51:30;;;;;;;;;;;;;;;;;;6236944;28;20551;-70
2022/12/06 02:54:31;;;;;;;87.85;41.50;;;;;;;;;;6248507;28;20377;-71
2022/12/06 02:57:44;;;;;;;86.80;37.90;;;;;;;;;;6234722;28;20077;-71
2022/12/06 03:00:46;;;;;;;92.18;41.03;;;;;;;;;;6237620;28;20025;-71
2022/12/06 03:03:56;;;;;;;89.78;41.35;;;;;;;;;;6226650;28;20119;-71
2022/12/06 03:06:56;;;;;;;87.57;39.33;;;;;;;;;;6227572;28;20044;-71
2022/12/06 03:10:11;;;;;;;87.18;40.28;;;;;;;;;;6230584;28;20037;-71
2022/12/06 03:13:15;;;;;;;85.63;36.45;;;;;;;;;;6238149;28;20025;-71
2022/12/06 03:16:30;;;;;;;85.40;38.25;;;;;;;;;;6235583;28;20074;-72
2022/12/06 03:19:30;;;;;;;91.35;40.83;;;;;;;;;;6235920;28;20079;-71
2022/12/06 03:22:33;;;;;;;93.20;38.93;;;;;;;;;;6236237;28;20022;-71
2022/12/06 03:25:34;;;;;;;79.72;34.78;;;;;;;;;;6238196;28;20686;-71
2022/12/06 03:28:35;;;;;;;94.57;43.20;;;;;;;;;;6236457;28;20463;-71
2022/12/06 03:31:37;;;;;;;89.47;40.80;;;;;;;;;;6238318;28;20017;-72
2022/12/06 03:34:39;;;;;;;81.57;37.65;;;;;;;;;;6236573;28;20029;-71
2022/12/06 03:37:41;;;;;;;72.10;35.90;;;;;;;;;;6243095;28;20035;-72
2022/12/06 03:40:43;;;;;;;84.22;39.00;;;;;;;;;;6230336;28;20113;-71
2022/12/06 03:43:44;;;;;;;81.82;37.25;;;;;;;;;;6229144;28;20802;-71
2022/12/06 03:46:47;;;;;;;68.90;35.57;;;;;;;;;;6232304;28;20030;-72
2022/12/06 03:49:52;;;;;;;80.97;35.17;;;;;;;;;;6224499;28;20083;-72
2022/12/06 03:52:53;;;;;;;78.57;36.58;;;;;;;;;;6241288;28;20020;-72
2022/12/06 03:55:53;;;;;;;71.50;32.50;;;;;;;;;;6228421;28;20029;-72
2022/12/06 03:58:53;;;;;;;69.87;33.10;;;;;;;;;;6236809;28;20776;-72
2022/12/06 04:01:53;;;;;;;80.33;37.43;;;;;;;;;;6236434;28;20048;-72
2022/12/06 04:04:53;;;;;;;84.37;38.40;;;;;;;;;;6235502;28;20097;-71
2022/12/06 04:07:54;;;;;;;82.88;37.45;;;;;;;;;;6237705;28;20021;-72
2022/12/06 04:10:54;;;;;;;68.67;33.00;;;;;;;;;;6237072;28;20172;-72
2022/12/06 04:13:54;;;;;;;84.25;37.97;;;;;;;;;;6237598;28;20111;-72
2022/12/06 04:20:13;;;;;;;76.72;36.03;;;;;;;;;;6226773;28;20462;-72
2022/12/06 04:23:13;;;;;;;138.80;59.42;;;;;;;;;;6235160;28;20213;-71
2022/12/06 04:26:15;;;;;;;90.80;41.67;;;;;;;;;;6229453;28;20021;-72
2022/12/06 04:39:15;;;;;;;90.75;34.85;;;;;;;;;;6240552;28;20025;-71
2022/12/06 04:45:34;;;;;;;118.53;51.63;;;;;;;;;;6237710;28;20289;-71
2022/12/06 04:48:34;;;;;;;92.72;41.08;;;;;;;;;;6236256;28;20040;-69
2022/12/06 04:51:35;;;;;;;155.63;55.23;;;;;;;;;;6242037;28;20021;-69
2022/12/06 04:54:35;;;;;;;97.55;42.22;;;;;;;;;;6242209;28;20523;-72
2022/12/06 04:57:35;;;;;;;108.13;47.47;;;;;;;;;;6240904;28;20048;-71
2022/12/06 05:00:36;;;;;;;110.83;45.13;;;;;;;;;;6240031;28;20018;-71
2022/12/06 05:03:36;;;;;;;136.55;54.35;;;;;;;;;;6238024;28;20037;-72
2022/12/06 05:06:36;;;;;;;107.87;41.90;;;;;;;;;;6236532;28;20017;-72
2022/12/06 05:09:36;;;;;;;71.87;29.30;;;;;;;;;;6238102;28;20202;-72
2022/12/06 05:12:37;;;;;;;96.70;38.13;;;;;;;;;;6237607;28;20659;-73
2022/12/06 05:15:37;;;;;;;94.82;36.63;;;;;;;;;;6225923;28;20033;-72
2022/12/06 05:18:37;;;;;;;91.75;36.03;;;;;;;;;;6224881;28;20116;-72
2022/12/06 05:21:38;;;;;;;91.47;34.43;;;;;;;;;;6231176;28;20457;-72
2022/12/06 05:24:38;;;;;;;92.00;39.67;;;;;;;;;;6231393;28;20026;-73
2022/12/06 05:27:38;;;;;;;107.60;47.33;;;;;;;;;;6233862;28;20014;-74
2022/12/06 05:30:39;;;;;;;80.45;38.47;;;;;;;;;;6232230;28;20029;-73
2022/12/06 05:33:39;;;;;;;88.90;41.60;;;;;;;;;;6234063;28;20284;-73
2022/12/06 05:36:39;;;;;;;84.07;33.37;;;;;;;;;;6238946;28;20540;-73
2022/12/06 05:39:40;;;;;;;72.40;29.33;;;;;;;;;;6241586;28;20023;-73
2022/12/06 05:42:40;;;;;;;69.50;27.07;;;;;;;;;;6238564;28;20083;-73
2022/12/06 05:45:40;;;;;;;82.93;35.70;;;;;;;;;;6241898;28;20408;-73
2022/12/06 05:48:41;;;;;;;89.77;35.47;;;;;;;;;;6245362;28;20021;-73
2022/12/06 05:51:41;;;;;;;91.20;39.20;;;;;;;;;;6240785;28;20032;-73
2022/12/06 05:54:41;;;;;;;93.77;40.60;;;;;;;;;;6230199;28;20029;-73
2022/12/06 05:57:41;;;;;;;166.43;53.40;;;;;;;;;;6234240;28;20099;-73
2022/12/06 06:00:45;;;;;;;165.30;56.65;;;;;;;;;;6223576;28;20464;-73
2022/12/06 06:03:45;;;;;;;180.77;66.35;;;;;;;;;;6228923;28;20056;-73
2022/12/06 06:06:45;;;;;;;159.27;63.53;;;;;;;;;;6229198;28;20443;-73
2022/12/06 06:09:45;;;;;;;145.80;55.90;;;;;;;;;;6229461;28;20465;-73
2022/12/06 06:12:45;;;;;;;111.43;55.53;;;;;;;;;;6233266;28;20025;-72
2022/12/06 06:15:46;;;;;;;151.07;61.10;;;;;;;;;;6228820;28;20021;-73
2022/12/06 06:18:46;;;;;;;158.50;63.37;;;;;;;;;;6219460;28;20417;-72
2022/12/06 06:21:48;;;;;;;144.63;54.53;;;;;;;;;;6223015;28;20374;-74
2022/12/06 06:24:48;;;;;;;162.32;57.95;;;;;;;;;;6231228;28;20037;-73
2022/12/06 06:27:48;;;;;;;125.50;53.53;;;;;;;;;;6239104;28;20020;-72
2022/12/06 06:30:48;;;;;;;115.00;49.42;;;;;;;;;;6238451;28;20037;-72
2022/12/06 06:33:48;;;;;;;135.97;53.87;;;;;;;;;;6227232;28;20014;-72
2022/12/06 06:36:49;;;;;;;119.93;53.30;;;;;;;;;;6224026;28;20140;-72
2022/12/06 06:39:49;;;;;;;120.93;46.53;;;;;;;;;;6232943;28;20049;-72
2022/12/06 06:42:49;;;;;;;95.83;44.30;;;;;;;;;;6222280;28;20013;-72
2022/12/06 06:45:53;;;;;;;122.70;47.20;;;;;;;;;;6237971;28;20013;-72
2022/12/06 06:48:54;;;;;;;130.98;48.38;;;;;;;;;;6229503;28;20392;-71
2022/12/06 06:51:54;;;;;;;141.43;57.57;;;;;;;;;;6224234;28;20092;-72
2022/12/06 06:54:54;;;;;;;153.37;55.40;;;;;;;;;;6233047;28;20017;-72
2022/12/06 06:57:54;;;;;;;144.73;53.00;;;;;;;;;;6217476;28;20682;-72
2022/12/06 07:00:55;;;;;;;144.17;55.80;;;;;;;;;;6224582;28;20442;-72
2022/12/06 07:03:56;;;;;;;182.40;65.13;;;;;;;;;;6223403;28;20013;-72
2022/12/06 07:06:56;;;;;;;244.83;86.13;;;;;;;;;;6217816;28;20445;-71
2022/12/06 07:09:56;;;;;;;181.83;67.30;;;;;;;;;;6220849;28;20020;-72
2022/12/06 07:12:56;;;;;;;265.50;97.65;;;;;;;;;;6220594;28;21013;-71
2022/12/06 07:15:59;;;;;;;234.40;87.07;;;;;;;;;;6216737;28;20330;-73
2022/12/06 07:19:00;;;;;;;288.95;107.63;;;;;;;;;;6222829;28;20013;-72
2022/12/06 07:22:00;;;;;;;225.30;86.57;;;;;;;;;;6245899;28;20029;-72
2022/12/06 07:25:00;;;;;;;274.80;102.32;;;;;;;;;;6232202;28;20029;-72
2022/12/06 07:28:00;;;;;;;252.77;91.60;;;;;;;;;;6218566;28;20028;-72
2022/12/06 07:31:11;;;;;;;242.95;84.22;;;;;;;;;;6211869;28;20028;-72
2022/12/06 07:34:11;;;;;;;263.45;86.78;;;;;;;;;;6229078;28;20045;-71
2022/12/06 07:37:11;;;;;;;295.57;93.90;;;;;;;;;;6225526;28;20012;-72
2022/12/06 07:40:12;;;;;;;222.55;82.07;;;;;;;;;;6229318;28;20025;-72
2022/12/06 07:46:32;;;;;;;188.40;73.10;;;;;;;;;;6234337;28;20029;-72
2022/12/06 07:49:32;;;;;;;198.60;69.57;;;;;;;;;;6228451;28;20424;-71
2022/12/06 07:52:34;;;;;;;212.87;73.27;;;;;;;;;;6240261;28;20018;-71
2022/12/06 07:55:34;;;;;;;;;;;;;;;;;;6235551;28;20192;-71
2022/12/06 07:58:34;;;;;;;196.10;70.50;;;;;;;;;;6232576;28;20165;-71
2022/12/06 08:01:34;;;;;;;238.77;89.40;;;;;;;;;;6227157;28;20568;-72
2022/12/06 08:04:35;;;;;;;227.80;91.07;;;;;;;;;;6219806;28;20053;-71
2022/12/06 08:07:35;;;;;;;200.07;78.45;;;;;;;;;;6226985;28;20021;-72
2022/12/06 08:10:35;;;;;;;219.93;77.20;;;;;;;;;;6224030;28;20101;-71
2022/12/06 08:13:35;;;;;;;230.20;77.40;;;;;;;;;;6218442;28;20105;-72
2022/12/06 08:16:36;;;;;;;214.50;78.53;;;;;;;;;;6225082;28;20021;-71
2022/12/06 08:19:36;;;;;;;203.37;71.60;;;;;;;;;;6225454;28;20075;-71
2022/12/06 08:22:36;;;;;;;195.65;77.13;;;;;;;;;;6222646;28;20517;-71
2022/12/06 08:25:36;;;;;;;183.67;71.60;;;;;;;;;;6229863;28;20014;-71
2022/12/06 08:28:37;;;;;;;190.57;71.93;;;;;;;;;;6254380;28;20013;-71
2022/12/06 08:31:38;;;;;;;186.73;74.47;;;;;;;;;;6239290;28;20422;-72
2022/12/06 08:34:38;;;;;;;144.20;52.07;;;;;;;;;;6235570;28;20021;-71
2022/12/06 08:37:38;;;;;;;194.50;90.77;;;;;;;;;;6233062;28;20017;-71
2022/12/06 08:40:38;;;;;;;186.55;74.10;;;;;;;;;;6240170;28;20030;-71
2022/12/06 08:43:38;;;;;;;194.27;78.77;;;;;;;;;;6229995;28;20509;-71
2022/12/06 08:46:39;;;;;;;156.85;65.25;;;;;;;;;;6228147;28;20461;-71
2022/12/06 08:49:39;;;;;;;158.33;66.67;;;;;;;;;;6230696;28;20272;-71
2022/12/06 08:52:40;;;;;;;149.53;63.10;;;;;;;;;;6235062;28;20473;-71
2022/12/06 08:55:40;;;;;;;170.20;74.60;;;;;;;;;;6229862;28;20018;-71
2022/12/06 08:58:40;;;;;;;166.77;72.35;;;;;;;;;;6232836;28;20456;-71
2022/12/06 09:01:40;;;;;;;192.80;87.85;;;;;;;;;;6229363;28;20010;-71
2022/12/06 09:04:41;;;;;;;166.07;81.73;;;;;;;;;;6235203;28;20409;-71
2022/12/06 09:07:41;;;;;;;175.37;75.77;;;;;;;;;;6232802;28;20168;-71
2022/12/06 09:10:42;;;;;;;172.30;76.43;;;;;;;;;;6232930;28;20052;-71
2022/12/06 09:13:42;;;;;;;163.80;73.40;;;;;;;;;;6230788;28;20494;-71
2022/12/06 09:16:43;;;;;;;157.67;67.60;;;;;;;;;;6238483;28;20024;-71
2022/12/06 09:19:43;;;;;;;110.80;51.90;;;;;;;;;;6238623;28;20025;-71
2022/12/06 09:22:43;;;;;;;186.60;91.50;;;;;;;;;;6230951;28;20461;-72
2022/12/06 09:25:44;;;;;;;170.97;65.90;;;;;;;;;;6236300;28;20212;-71
2022/12/06 09:28:48;;;;;;;147.77;59.47;;;;;;;;;;6238690;28;20060;-72
2022/12/06 09:31:48;;;;;;;127.35;61.88;;;;;;;;;;6238537;28;20017;-72
2022/12/06 09:34:48;;;;;;;140.27;68.77;;;;;;;;;;6239227;28;20026;-71
2022/12/06 09:37:48;;;;;;;74.78;39.13;;;;;;;;;;6232241;28;20017;-71
2022/12/06 09:40:52;;;;;;;112.20;51.43;;;;;;;;;;6230543;28;20061;-71
2022/12/06 09:44:04;;;;;;;103.45;45.45;;;;;;;;;;6225538;28;20029;-71
2022/12/06 09:47:17;;;;;;;105.88;55.03;;;;;;;;;;6236345;28;20044;-72
2022/12/06 09:50:31;;;;;;;124.20;50.88;;;;;;;;;;6235979;28;20187;-71
2022/12/06 09:53:40;;;;;;;327.50;138.02;;;;;;;;;;6231671;28;20061;-70
2022/12/06 09:56:50;;;;;;;392.80;158.90;;;;;;;;;;6220347;28;20212;-71
2022/12/06 10:00:13;;;;;;;148.02;59.75;;;;;;;;;;6234231;28;20021;-72
2022/12/06 10:03:13;;;;;;;96.40;42.30;;;;;;;;;;6232134;28;20765;-71
2022/12/06 10:06:16;;;;;;;99.55;43.28;;;;;;;;;;6224003;28;20573;-71
2022/12/06 10:09:25;;;;;;;89.55;42.85;;;;;;;;;;6227739;28;20014;-71
2022/12/06 10:12:25;;;;;;;71.97;35.78;;;;;;;;;;6237853;28;20265;-72
2022/12/06 10:15:41;;;;;;;75.78;35.35;;;;;;;;;;6235245;28;21205;-70
2022/12/06 10:18:44;;;;;;;89.57;37.05;;;;;;;;;;6233877;28;20461;-71
2022/12/06 10:21:49;;;;;;;72.40;33.67;;;;;;;;;;6236918;28;20374;-72
2022/12/06 10:24:52;;;;;;;71.65;34.50;;;;;;;;;;6217513;28;20375;-71
2022/12/06 10:28:03;;;;;;;71.60;33.35;;;;;;;;;;6228448;28;20017;-71
2022/12/06 10:31:23;;;;;;;77.63;37.50;;;;;;;;;;6240566;28;20083;-71
2022/12/06 10:34:50;;;;;;;90.72;43.80;;;;;;;;;;6241363;28;20503;-71
2022/12/06 10:37:56;;;;;;;98.95;42.28;;;;;;;;;;6244073;28;20580;-71
2022/12/06 10:41:08;;;;;;;84.72;38.53;;;;;;;;;;6238721;28;20381;-72
2022/12/06 10:44:17;;;;;;;76.00;36.78;;;;;;;;;;6230886;28;20021;-71
2022/12/06 10:47:26;;;;;;;95.35;45.33;;;;;;;;;;6236104;28;20355;-71
2022/12/06 10:50:32;;;;;;;82.50;40.67;;;;;;;;;;6238999;28;20020;-72
2022/12/06 10:53:37;;;;;;;81.78;40.95;;;;;;;;;;6245149;28;20019;-72
2022/12/06 10:56:39;;;;;;;76.30;39.47;;;;;;;;;;6232565;28;20026;-72
2022/12/06 10:59:42;;;;;;;87.63;42.58;;;;;;;;;;6221844;28;20084;-72
2022/12/06 11:02:49;;;;;;;68.15;36.40;;;;;;;;;;6218909;28;20298;-71
2022/12/06 11:05:54;;;;;;;101.20;45.53;;;;;;;;;;6225076;28;20382;-71
2022/12/06 11:09:03;;;;;;;94.32;46.60;;;;;;;;;;6230839;28;20486;-72
2022/12/06 11:12:16;;;;;;;71.95;37.75;;;;;;;;;;6220375;28;20025;-71
2022/12/06 11:15:16;;;;;;;83.10;40.58;;;;;;;;;;6230400;28;20100;-71
2022/12/06 11:18:17;;;;;;;47.50;25.47;;;;;;;;;;6249414;28;20014;-71
2022/12/06 11:21:28;;;;;;;39.87;22.30;;;;;;;;;;6235764;28;20658;-71
2022/12/06 11:24:35;;;;;;;45.97;25.80;;;;;;;;;;6232574;28;20027;-72
2022/12/06 11:27:39;;;;;;;46.10;25.23;;;;;;;;;;6233176;28;20014;-71
2022/12/06 11:30:39;;;;;;;47.75;25.77;;;;;;;;;;6232171;28;20516;-71
2022/12/06 11:33:40;;;;;;;42.80;21.27;;;;;;;;;;6231358;28;20033;-71
2022/12/06 11:36:40;;;;;;;46.93;23.17;;;;;;;;;;6228635;28;20101;-72
2022/12/06 11:39:41;;;;;;;33.27;20.57;;;;;;;;;;6234183;28;20021;-71
2022/12/06 11:42:41;;;;;;;51.10;25.60;;;;;;;;;;6220701;28;20478;-72
2022/12/06 11:45:44;;;;;;;46.20;26.70;;;;;;;;;;6224332;28;20097;-72
2022/12/06 11:48:44;;;;;;;53.42;25.40;;;;;;;;;;6230457;28;20112;-72
2022/12/06 11:51:44;;;;;;;54.93;27.17;;;;;;;;;;6230173;28;20033;-71
2022/12/06 11:54:47;;;;;;;51.63;23.83;;;;;;;;;;6231147;28;20083;-72
2022/12/06 11:57:48;;;;;;;51.60;28.50;;;;;;;;;;6232364;28;20037;-73
2022/12/06 12:00:56;;;;;;;49.65;21.60;;;;;;;;;;6236492;28;20018;-73
2022/12/06 12:03:56;;;;;;;44.67;19.67;;;;;;;;;;6222514;28;20477;-73
2022/12/06 12:06:58;;;;;;;36.20;20.50;;;;;;;;;;6223875;28;20010;-73
2022/12/06 12:10:00;;;;;;;36.83;18.25;;;;;;;;;;6234336;28;20485;-72
2022/12/06 12:16:31;;;;;;;38.95;18.77;;;;;;;;;;6228076;28;20101;-72
2022/12/06 12:19:35;;;;;;;38.15;17.50;;;;;;;;;;6231372;28;20029;-72
2022/12/06 12:22:37;;;;;;;34.85;17.45;;;;;;;;;;6222939;28;20030;-72
2022/12/06 12:25:41;;;;;;;32.30;16.65;;;;;;;;;;6230288;28;20469;-74
2022/12/06 12:28:42;;;;;;;24.35;14.88;;;;;;;;;;6229339;28;20600;-74
2022/12/06 12:32:05;;;;;;;22.57;13.23;;;;;;;;;;6229392;28;20021;-73
2022/12/06 12:35:26;;;;;;;26.27;13.82;;;;;;;;;;6225699;28;20037;-73
2022/12/06 12:38:30;;;;;;;26.75;13.50;;;;;;;;;;6228775;28;20485;-73
2022/12/06 12:41:40;;;;;;;27.17;15.00;;;;;;;;;;6222799;28;20024;-74
2022/12/06 12:44:44;;;;;;;25.90;13.48;;;;;;;;;;6225129;28;20041;-72
2022/12/06 12:47:54;;;;;;;24.02;13.43;;;;;;;;;;6221088;28;20029;-73
2022/12/06 12:50:56;;;;;;;27.90;14.63;;;;;;;;;;6218845;28;20018;-72
2022/12/06 12:53:58;;;;;;;34.13;16.52;;;;;;;;;;6222598;28;20390;-72
2022/12/06 12:57:00;;;;;;;33.70;17.17;;;;;;;;;;6226241;28;20136;-73
2022/12/06 13:00:00;;;;;;;29.73;18.63;;;;;;;;;;6229660;28;20429;-74
2022/12/06 13:03:02;;;;;;;38.93;21.40;;;;;;;;;;6238338;28;20067;-74
2022/12/06 13:06:03;;;;;;;42.35;22.10;;;;;;;;;;6235418;28;20017;-74
2022/12/06 13:09:04;;;;;;;44.47;25.80;;;;;;;;;;6235268;28;20013;-73
2022/12/06 13:12:09;;;;;;;51.13;27.90;;;;;;;;;;6236150;28;20029;-73
2022/12/06 13:15:13;;;;;;;52.00;23.65;;;;;;;;;;6234043;28;20025;-73
2022/12/06 13:18:16;;;;;;;44.05;21.05;;;;;;;;;;6236697;28;20055;-73
2022/12/06 13:21:20;;;;;;;53.67;22.08;;;;;;;;;;6233404;28;20022;-73
2022/12/06 13:24:25;;;;;;;45.45;21.73;;;;;;;;;;6231053;28;20469;-73
2022/12/06 13:27:26;;;;;;;29.85;15.75;;;;;;;;;;6238637;28;20026;-74
2022/12/06 13:30:28;;;;;;;38.58;16.52;;;;;;;;;;6237864;28;20076;-73
2022/12/06 13:33:30;;;;;;;32.45;14.18;;;;;;;;;;6238914;28;20048;-73
2022/12/06 13:36:30;;;;;;;;;;;;;;;;;;6241671;28;20023;-73
2022/12/06 13:39:31;;;;;;;27.75;17.02;;;;;;;;;;6242654;28;19909;-74
2022/12/06 13:42:37;;;;;;;33.33;14.63;;;;;;;;;;6239149;28;20101;-73
2022/12/06 13:45:38;;;;;;;33.70;15.82;;;;;;;;;;6238694;28;20016;-73
2022/12/06 13:48:48;;;;;;;26.50;15.07;;;;;;;;;;6239196;28;20479;-74
2022/12/06 13:51:49;;;;;;;25.67;14.43;;;;;;;;;;6235228;28;20477;-73
2022/12/06 13:54:49;;;;;;;29.67;16.90;;;;;;;;;;6238535;28;20104;-73
2022/12/06 13:57:49;;;;;;;34.40;17.38;;;;;;;;;;6236348;28;20417;-73
2022/12/06 14:00:50;;;;;;;31.47;15.67;;;;;;;;;;6236479;28;20309;-73
2022/12/06 14:03:55;;;;;;;37.70;19.30;;;;;;;;;;6237861;28;20018;-73
2022/12/06 14:07:09;;;;;;;44.75;22.15;;;;;;;;;;6238014;28;20527;-73
2022/12/06 14:10:13;;;;;;;51.35;23.75;;;;;;;;;;6233783;28;20025;-74
2022/12/06 14:13:18;;;;;;;50.15;25.45;;;;;;;;;;6234592;28;20060;-73
2022/12/06 14:16:21;;;;;;;44.35;23.80;;;;;;;;;;6238545;28;20025;-73
2022/12/06 14:19:21;;;;;;;55.75;27.70;;;;;;;;;;6236884;28;20017;-72
2022/12/06 14:22:26;;;;;;;58.83;28.00;;;;;;;;;;6240222;28;20381;-72
2022/12/06 14:25:28;;;;;;;50.45;25.25;;;;;;;;;;6238463;28;20014;-73
2022/12/06 14:28:33;;;;;;;35.30;17.85;;;;;;;;;;6238181;28;20017;-72
2022/12/06 14:31:33;;;;;;;62.25;25.35;;;;;;;;;;6244141;28;20025;-72
2022/12/06 14:34:34;;;;;;;56.97;27.50;;;;;;;;;;6238359;28;20025;-72
2022/12/06 14:37:35;;;;;;;51.33;27.00;;;;;;;;;;6246236;28;20047;-72
2022/12/06 14:43:55;;;;;;;44.15;22.20;;;;;;;;;;6235181;28;20489;-72
2022/12/06 14:46:56;;;;;;;43.03;21.80;;;;;;;;;;6237115;28;20091;-72
2022/12/06 14:53:26;;;;;;;53.85;23.92;;;;;;;;;;6236283;28;20022;-72
2022/12/06 14:56:33;;;;;;;39.33;18.75;;;;;;;;;;6229487;28;20026;-73
2022/12/06 14:59:33;;;;;;;48.92;25.45;;;;;;;;;;6235377;28;20701;-72
2022/12/06 15:02:36;;;;;;;50.37;23.57;;;;;;;;;;6235963;28;20223;-72
2022/12/06 15:05:38;;;;;;;33.67;18.58;;;;;;;;;;6234371;28;20022;-73
2022/12/06 15:08:39;;;;;;;40.17;20.70;;;;;;;;;;6234449;28;20051;-72
2022/12/06 15:15:01;;;;;;;36.60;21.23;;;;;;;;;;6230619;28;20029;-73
2022/12/06 15:18:03;;;;;;;46.50;22.20;;;;;;;;;;6236533;28;20029;-72
2022/12/06 15:21:11;;;;;;;36.10;21.48;;;;;;;;;;6235873;28;20045;-73
2022/12/06 15:24:15;;;;;;;38.03;20.75;;;;;;;;;;6239497;28;20028;-72
2022/12/06 15:27:20;;;;;;;68.32;32.28;;;;;;;;;;6234772;28;20064;-73
2022/12/06 15:30:20;;;;;;;68.95;34.60;;;;;;;;;;6235672;28;20010;-72
2022/12/06 15:33:21;;;;;;;65.85;33.78;;;;;;;;;;6235792;28;20045;-72
2022/12/06 15:36:26;;;;;;;56.88;30.90;;;;;;;;;;6234728;28;20034;-72
2022/12/06 15:39:26;;;;;;;36.88;21.00;;;;;;;;;;6230637;28;20066;-72
2022/12/06 15:42:26;;;;;;;45.43;24.23;;;;;;;;;;6231015;28;20396;-72
2022/12/06 15:45:27;;;;;;;52.60;30.10;;;;;;;;;;6226621;28;20416;-73
2022/12/06 15:48:27;;;;;;;56.90;27.97;;;;;;;;;;6233165;28;20148;-72
2022/12/06 15:51:28;;;;;;;41.83;22.33;;;;;;;;;;6235702;28;20032;-72
2022/12/06 15:54:28;;;;;;;20.33;12.10;;;;;;;;;;6233658;28;20014;-72
2022/12/06 15:57:28;;;;;;;46.20;21.00;;;;;;;;;;6230684;28;20106;-72
2022/12/06 16:00:29;;;;;;;38.45;18.95;;;;;;;;;;6239728;28;20017;-72
2022/12/06 16:03:29;;;;;;;32.87;16.67;;;;;;;;;;6222427;28;20026;-72
2022/12/06 16:06:29;;;;;;;32.58;16.60;;;;;;;;;;6228535;28;20278;-71
2022/12/06 16:09:29;;;;;;;30.10;14.15;;;;;;;;;;6232865;28;20211;-72
2022/12/06 16:13:20;;;;;;;31.90;15.10;;;;;;;;;;6229885;28;20447;-72
2022/12/06 16:15:50;;;;;;;42.90;22.45;;;;;;;;;;6232849;28;20021;-72
2022/12/06 16:18:51;;;;;;;65.30;27.30;;;;;;;;;;6227053;28;20242;-73
2022/12/06 16:21:52;;;;;;;33.23;15.27;;;;;;;;;;6233719;28;20300;-72
2022/12/06 16:24:52;;;;;;;114.15;51.40;;;;;;;;;;6233104;28;20454;-72
2022/12/06 16:27:52;;;;;;;124.93;53.87;;;;;;;;;;6228174;28;20018;-72
2022/12/06 16:30:53;;;;;;;69.25;32.08;;;;;;;;;;6234367;28;20032;-72
2022/12/06 16:33:53;;;;;;;110.23;45.90;;;;;;;;;;6235888;28;20439;-73
2022/12/06 16:37:01;;;;;;;81.57;41.37;;;;;;;;;;6240914;28;20018;-72
2022/12/06 16:40:01;;;;;;;79.75;37.00;;;;;;;;;;6232649;28;20075;-72
2022/12/06 16:43:01;;;;;;;51.37;27.30;;;;;;;;;;6236740;28;20571;-73
2022/12/06 16:46:20;;;;;;;65.20;34.67;;;;;;;;;;6234603;28;20412;-72
2022/12/06 16:49:27;;;;;;;69.45;33.85;;;;;;;;;;6235949;28;20018;-72
2022/12/06 16:52:28;;;;;;;49.88;29.30;;;;;;;;;;6242663;28;20018;-72
2022/12/06 16:55:28;;;;;;;24.70;14.82;;;;;;;;;;6233961;28;20033;-72
2022/12/06 16:58:28;;;;;;;35.93;16.73;;;;;;;;;;6227688;28;20057;-72
2022/12/06 17:01:44;;;;;;;57.42;25.73;;;;;;;;;;6223062;28;20254;-72
2022/12/06 17:04:44;;;;;;;50.67;25.55;;;;;;;;;;6229062;28;20148;-72
2022/12/06 17:07:45;;;;;;;52.03;24.80;;;;;;;;;;6230496;28;20407;-72
2022/12/06 17:10:45;;;;;;;42.03;21.80;;;;;;;;;;6229178;28;20029;-73
2022/12/06 17:13:45;;;;;;;71.40;31.75;;;;;;;;;;6233822;28;20400;-73
2022/12/06 17:16:45;;;;;;;60.80;25.40;;;;;;;;;;6235439;28;20023;-73
2022/12/06 17:19:45;;;;;;;54.07;27.40;;;;;;;;;;6238384;28;20214;-72
2022/12/06 17:22:46;;;;;;;79.13;34.10;;;;;;;;;;6231470;28;20434;-72
2022/12/06 17:25:54;;;;;;;58.60;29.80;;;;;;;;;;6234979;28;20072;-72
2022/12/06 17:28:54;;;;;;;59.22;29.00;;;;;;;;;;6231640;28;20036;-72
2022/12/06 17:31:55;;;;;;;80.90;32.57;;;;;;;;;;6237799;28;20021;-72
2022/12/06 17:34:55;;;;;;;72.87;32.20;;;;;;;;;;6235986;28;20017;-73
2022/12/06 17:37:55;;;;;;;80.13;40.17;;;;;;;;;;6239334;28;20067;-72
2022/12/06 17:40:55;;;;;;;43.75;24.80;;;;;;;;;;6237081;28;20462;-73
2022/12/06 17:43:56;;;;;;;61.42;29.98;;;;;;;;;;6229687;28;20027;-73
2022/12/06 17:46:56;;;;;;;58.80;29.90;;;;;;;;;;6233869;28;20096;-72
2022/12/06 17:49:56;;;;;;;57.37;29.43;;;;;;;;;;6237000;28;20029;-72
2022/12/06 17:52:56;;;;;;;63.47;34.90;;;;;;;;;;6239848;28;20633;-73
2022/12/06 17:56:16;;;;;;;56.17;31.77;;;;;;;;;;6237454;28;20029;-73
2022/12/06 17:59:18;;;;;;;57.92;28.95;;;;;;;;;;6246356;28;20053;-72
2022/12/06 18:02:18;;;;;;;;;;;;;;;;;;6235279;28;20428;-72
2022/12/06 18:05:18;;;;;;;37.78;18.60;;;;;;;;;;6232292;28;20358;-71
2022/12/06 18:08:18;;;;;;;28.53;12.50;;;;;;;;;;6237795;28;20017;-72
2022/12/06 18:11:18;;;;;;;22.80;11.07;;;;;;;;;;6237911;28;20006;-72